createdAt,value
2023-02-01T00:00:08.992Z,0.00
2023-02-01T00:01:09.191Z,0.00
2023-02-01T00:02:09.260Z,0.00
2023-02-01T00:03:09.459Z,0.00
2023-02-01T00:04:09.525Z,0.00
2023-02-01T00:05:09.700Z,0.00
2023-02-01T00:06:09.933Z,0.00
2023-02-01T00:07:10.787Z,0.00
2023-02-01T00:08:10.191Z,0.00
2023-02-01T00:09:10.289Z,0.00
2023-02-01T00:10:10.384Z,0.00
2023-02-01T00:11:10.479Z,0.00
2023-02-01T00:12:10.577Z,0.00
2023-02-01T00:13:10.679Z,0.00
2023-02-01T00:14:10.761Z,0.00
2023-02-01T00:15:10.834Z,0.00
2023-02-01T00:16:11.084Z,0.00
2023-02-01T00:17:11.174Z,0.00
2023-02-01T00:18:11.242Z,0.00
2023-02-01T00:19:11.459Z,0.00
2023-02-01T00:20:11.556Z,0.00
2023-02-01T00:21:11.691Z,0.00
2023-02-01T00:22:11.771Z,0.00
2023-02-01T00:23:11.844Z,0.00
2023-02-01T00:24:11.905Z,0.00
2023-02-01T00:25:12.102Z,0.00
2023-02-01T00:26:12.181Z,0.00
2023-02-01T00:27:12.265Z,0.00
2023-02-01T00:28:12.331Z,0.00
2023-02-01T00:29:12.538Z,0.00
2023-02-01T00:30:12.600Z,0.00
2023-02-01T00:31:12.927Z,0.00
2023-02-01T00:32:12.938Z,0.00
2023-02-01T00:33:13.006Z,0.00
2023-02-01T00:34:13.216Z,0.00
2023-02-01T00:35:13.380Z,0.00
2023-02-01T00:36:13.459Z,0.00
2023-02-01T00:37:13.529Z,0.00
2023-02-01T00:38:13.695Z,0.00
2023-02-01T00:39:13.896Z,0.00
2023-02-01T00:40:13.969Z,0.00
2023-02-01T00:41:14.174Z,0.00
2023-02-01T00:42:14.238Z,0.00
2023-02-01T00:43:14.434Z,0.00
2023-02-01T00:44:14.506Z,0.00
2023-02-01T00:45:14.703Z,0.00
2023-02-01T00:46:14.929Z,0.00
2023-02-01T00:47:15.034Z,0.00
2023-02-01T00:48:15.099Z,0.00
2023-02-01T00:49:15.298Z,0.00
2023-02-01T00:50:15.370Z,0.00
2023-02-01T00:51:15.512Z,0.00
2023-02-01T00:52:15.606Z,0.00
2023-02-01T00:53:15.691Z,0.00
2023-02-01T00:54:15.759Z,0.00
2023-02-01T00:55:15.953Z,0.00
2023-02-01T00:56:16.057Z,0.00
2023-02-01T00:57:16.129Z,0.00
2023-02-01T00:58:16.200Z,0.00
2023-02-01T00:59:16.389Z,0.00
2023-02-01T01:00:16.458Z,0.00
2023-02-01T01:01:16.690Z,0.00
2023-02-01T01:02:16.775Z,0.00
2023-02-01T01:03:16.843Z,0.00
2023-02-01T01:04:17.027Z,0.00
2023-02-01T01:05:17.218Z,0.00
2023-02-01T01:06:17.349Z,0.00
2023-02-01T01:07:17.427Z,0.00
2023-02-01T01:08:17.522Z,0.00
2023-02-01T01:09:17.590Z,0.00
2023-02-01T01:10:17.665Z,0.00
2023-02-01T01:11:17.880Z,0.00
2023-02-01T01:12:17.947Z,0.00
2023-02-01T01:13:18.147Z,0.00
2023-02-01T01:14:18.220Z,0.00
2023-02-01T01:15:18.422Z,0.00
2023-02-01T01:16:18.541Z,0.00
2023-02-01T01:17:18.644Z,0.00
2023-02-01T01:18:18.728Z,0.00
2023-02-01T01:19:18.815Z,0.00
2023-02-01T01:20:19.003Z,0.00
2023-02-01T01:21:19.001Z,0.00
2023-02-01T01:22:19.087Z,0.00
2023-02-01T01:23:19.189Z,0.00
2023-02-01T01:24:19.289Z,0.00
2023-02-01T01:25:19.416Z,0.00
2023-02-01T01:26:19.558Z,0.00
2023-02-01T01:27:19.630Z,0.00
2023-02-01T01:28:19.715Z,0.00
2023-02-01T01:29:19.809Z,0.00
2023-02-01T01:30:20.354Z,0.00
2023-02-01T01:31:20.058Z,0.00
2023-02-01T01:32:20.147Z,0.00
2023-02-01T01:33:20.369Z,0.00
2023-02-01T01:34:20.461Z,0.00
2023-02-01T01:35:20.655Z,0.00
2023-02-01T01:36:20.761Z,0.00
2023-02-01T01:37:20.839Z,0.00
2023-02-01T01:38:20.911Z,0.00
2023-02-01T01:39:20.998Z,0.00
2023-02-01T01:40:21.276Z,0.00
2023-02-01T01:41:21.289Z,0.00
2023-02-01T01:42:21.357Z,0.00
2023-02-01T01:43:21.441Z,0.00
2023-02-01T01:44:21.526Z,0.00
2023-02-01T01:45:21.717Z,0.00
2023-02-01T01:46:21.863Z,0.00
2023-02-01T01:47:21.959Z,0.00
2023-02-01T01:48:22.021Z,0.00
2023-02-01T01:49:22.116Z,0.00
2023-02-01T01:50:22.590Z,0.00
2023-02-01T01:51:22.388Z,0.00
2023-02-01T01:52:22.472Z,0.00
2023-02-01T01:53:22.672Z,0.00
2023-02-01T01:54:22.743Z,0.00
2023-02-01T01:55:22.935Z,0.00
2023-02-01T01:56:23.138Z,0.00
2023-02-01T01:57:23.218Z,0.00
2023-02-01T01:58:23.434Z,0.00
2023-02-01T01:59:23.522Z,0.00
2023-02-01T02:00:24.026Z,0.00
2023-02-01T02:01:23.840Z,0.00
2023-02-01T02:02:23.950Z,0.00
2023-02-01T02:03:24.032Z,0.00
2023-02-01T02:04:24.108Z,0.00
2023-02-01T02:05:24.314Z,0.00
2023-02-01T02:06:24.383Z,0.00
2023-02-01T02:07:24.460Z,0.00
2023-02-01T02:08:24.636Z,0.00
2023-02-01T02:09:24.821Z,0.00
2023-02-01T02:10:24.997Z,0.00
2023-02-01T02:11:25.204Z,0.00
2023-02-01T02:12:25.283Z,0.00
2023-02-01T02:13:25.484Z,0.00
2023-02-01T02:14:33.468Z,0.00
2023-02-01T02:15:26.376Z,0.00
2023-02-01T02:16:25.898Z,0.00
2023-02-01T02:17:25.988Z,0.00
2023-02-01T02:18:26.086Z,0.00
2023-02-01T02:19:26.156Z,0.00
2023-02-01T02:20:26.351Z,0.00
2023-02-01T02:21:26.445Z,0.00
2023-02-01T02:22:26.521Z,0.00
2023-02-01T02:23:26.595Z,0.00
2023-02-01T02:24:26.815Z,0.00
2023-02-01T02:25:26.884Z,0.00
2023-02-01T02:26:26.976Z,0.00
2023-02-01T02:27:27.055Z,0.00
2023-02-01T02:28:27.245Z,0.00
2023-02-01T02:29:27.433Z,0.00
2023-02-01T02:30:27.603Z,0.00
2023-02-01T02:31:27.846Z,0.00
2023-02-01T02:32:27.881Z,0.00
2023-02-01T02:33:28.073Z,0.00
2023-02-01T02:34:28.261Z,0.00
2023-02-01T02:35:28.436Z,0.00
2023-02-01T02:36:28.623Z,0.00
2023-02-01T02:37:28.812Z,0.00
2023-02-01T02:38:28.999Z,0.00
2023-02-01T02:39:29.177Z,0.00
2023-02-01T02:40:29.365Z,0.00
2023-02-01T02:41:29.539Z,0.00
2023-02-01T02:42:29.599Z,0.00
2023-02-01T02:43:29.776Z,0.00
2023-02-01T02:44:29.938Z,0.00
2023-02-01T02:45:30.212Z,0.00
2023-02-01T02:46:30.355Z,0.00
2023-02-01T02:47:30.407Z,0.00
2023-02-01T02:48:30.667Z,0.00
2023-02-01T02:49:30.737Z,0.00
2023-02-01T02:50:30.914Z,0.00
2023-02-01T02:51:31.143Z,0.00
2023-02-01T02:52:31.224Z,0.00
2023-02-01T02:53:31.295Z,0.00
2023-02-01T02:54:31.538Z,0.00
2023-02-01T02:55:31.595Z,0.00
2023-02-01T02:56:31.778Z,0.00
2023-02-01T02:57:31.961Z,0.00
2023-02-01T02:58:32.129Z,0.00
2023-02-01T02:59:32.308Z,0.00
2023-02-01T03:00:32.396Z,0.00
2023-02-01T03:01:32.487Z,0.00
2023-02-01T03:02:32.583Z,0.00
2023-02-01T03:03:32.640Z,0.00
2023-02-01T03:04:32.696Z,0.00
2023-02-01T03:05:32.912Z,0.00
2023-02-01T03:06:32.983Z,0.00
2023-02-01T03:07:33.063Z,0.00
2023-02-01T03:08:33.140Z,0.00
2023-02-01T03:09:33.321Z,0.00
2023-02-01T03:10:33.374Z,0.00
2023-02-01T03:11:33.571Z,0.00
2023-02-01T03:12:33.652Z,0.00
2023-02-01T03:13:33.735Z,0.00
2023-02-01T03:14:33.888Z,0.00
2023-02-01T03:15:34.091Z,0.00
2023-02-01T03:16:34.380Z,0.00
2023-02-01T03:17:34.324Z,0.00
2023-02-01T03:18:34.511Z,0.00
2023-02-01T03:19:34.589Z,0.00
2023-02-01T03:20:34.915Z,0.00
2023-02-01T03:21:34.879Z,0.00
2023-02-01T03:22:34.958Z,0.00
2023-02-01T03:23:35.073Z,0.00
2023-02-01T03:24:35.124Z,0.00
2023-02-01T03:25:35.305Z,0.00
2023-02-01T03:26:35.532Z,0.00
2023-02-01T03:27:35.578Z,0.00
2023-02-01T03:28:35.748Z,0.00
2023-02-01T03:29:35.925Z,0.00
2023-02-01T03:30:36.146Z,0.00
2023-02-01T03:31:36.257Z,0.00
2023-02-01T03:32:36.305Z,0.00
2023-02-01T03:33:36.495Z,0.00
2023-02-01T03:34:36.567Z,0.00
2023-02-01T03:35:36.745Z,0.00
2023-02-01T03:36:36.826Z,0.00
2023-02-01T03:37:36.893Z,0.00
2023-02-01T03:38:37.074Z,0.00
2023-02-01T03:39:37.331Z,0.00
2023-02-01T03:40:37.486Z,0.00
2023-02-01T03:41:37.590Z,0.00
2023-02-01T03:42:37.625Z,0.00
2023-02-01T03:43:37.805Z,0.00
2023-02-01T03:44:38.008Z,0.00
2023-02-01T03:45:38.094Z,0.00
2023-02-01T03:46:38.264Z,0.00
2023-02-01T03:47:38.334Z,0.00
2023-02-01T03:48:38.509Z,0.00
2023-02-01T03:49:38.669Z,0.00
2023-02-01T03:50:38.850Z,0.00
2023-02-01T03:51:38.962Z,0.00
2023-02-01T03:52:39.044Z,0.00
2023-02-01T03:53:39.096Z,0.00
2023-02-01T03:54:39.359Z,0.00
2023-02-01T03:55:39.434Z,0.00
2023-02-01T03:56:39.581Z,0.00
2023-02-01T03:57:39.691Z,0.00
2023-02-01T03:58:39.756Z,0.00
2023-02-01T03:59:39.922Z,0.00
2023-02-01T04:00:40.105Z,0.00
2023-02-01T04:01:40.290Z,0.00
2023-02-01T04:02:40.453Z,0.00
2023-02-01T04:03:40.527Z,0.00
2023-02-01T04:04:40.705Z,0.00
2023-02-01T04:05:40.769Z,0.00
2023-02-01T04:06:40.959Z,0.00
2023-02-01T04:07:41.094Z,0.00
2023-02-01T04:08:41.117Z,0.00
2023-02-01T04:09:41.330Z,0.00
2023-02-01T04:10:41.465Z,0.00
2023-02-01T04:11:41.707Z,0.00
2023-02-01T04:12:41.833Z,0.00
2023-02-01T04:13:41.877Z,0.00
2023-02-01T04:14:42.050Z,0.00
2023-02-01T04:15:42.224Z,0.00
2023-02-01T04:16:42.480Z,0.00
2023-02-01T04:17:42.568Z,0.00
2023-02-01T04:18:42.731Z,0.00
2023-02-01T04:19:42.880Z,0.00
2023-02-01T04:20:43.054Z,0.00
2023-02-01T04:21:43.237Z,0.00
2023-02-01T04:22:43.438Z,0.00
2023-02-01T04:23:43.488Z,0.00
2023-02-01T04:24:43.650Z,0.00
2023-02-01T04:25:43.797Z,0.00
2023-02-01T04:26:44.127Z,0.00
2023-02-01T04:27:45.186Z,0.00
2023-02-01T04:28:44.221Z,0.00
2023-02-01T04:29:44.388Z,0.00
2023-02-01T04:30:44.604Z,0.00
2023-02-01T04:31:44.763Z,0.00
2023-02-01T04:32:44.744Z,0.00
2023-02-01T04:33:44.883Z,0.00
2023-02-01T04:34:45.002Z,0.00
2023-02-01T04:35:45.200Z,0.00
2023-02-01T04:36:47.291Z,0.00
2023-02-01T04:37:45.450Z,0.00
2023-02-01T04:38:45.610Z,0.00
2023-02-01T04:39:45.765Z,0.00
2023-02-01T04:40:45.913Z,0.00
2023-02-01T04:41:46.076Z,0.00
2023-02-01T04:42:46.232Z,0.00
2023-02-01T04:43:46.392Z,0.00
2023-02-01T04:44:46.560Z,0.00
2023-02-01T04:45:46.807Z,0.00
2023-02-01T04:46:46.860Z,0.00
2023-02-01T04:47:46.997Z,0.00
2023-02-01T04:48:47.141Z,0.00
2023-02-01T04:49:47.304Z,0.00
2023-02-01T04:50:47.477Z,0.00
2023-02-01T04:51:47.663Z,0.00
2023-02-01T04:52:47.702Z,0.00
2023-02-01T04:53:47.866Z,0.00
2023-02-01T04:54:48.021Z,0.00
2023-02-01T04:55:48.162Z,0.00
2023-02-01T04:56:48.375Z,0.00
2023-02-01T04:57:48.424Z,0.00
2023-02-01T04:58:48.578Z,0.00
2023-02-01T04:59:48.745Z,0.00
2023-02-01T05:00:48.846Z,0.00
2023-02-01T05:01:49.128Z,0.00
2023-02-01T05:02:49.131Z,0.00
2023-02-01T05:03:49.281Z,0.00
2023-02-01T05:04:49.472Z,0.00
2023-02-01T05:05:49.504Z,0.00
2023-02-01T05:06:49.625Z,0.00
2023-02-01T05:07:49.817Z,0.00
2023-02-01T05:08:49.947Z,0.00
2023-02-01T05:09:50.129Z,0.00
2023-02-01T05:10:50.290Z,0.00
2023-02-01T05:11:50.480Z,0.00
2023-02-01T05:12:50.560Z,0.00
2023-02-01T05:13:50.730Z,0.00
2023-02-01T05:14:50.771Z,0.00
2023-02-01T05:15:50.990Z,0.00
2023-02-01T05:16:51.075Z,0.00
2023-02-01T05:17:51.108Z,0.00
2023-02-01T05:18:51.266Z,0.00
2023-02-01T05:19:51.454Z,0.00
2023-02-01T05:20:51.530Z,0.00
2023-02-01T05:21:51.630Z,0.00
2023-02-01T05:22:51.732Z,0.00
2023-02-01T05:23:51.792Z,0.00
2023-02-01T05:24:51.965Z,0.00
2023-02-01T05:25:52.160Z,0.00
2023-02-01T05:26:52.306Z,0.00
2023-02-01T05:27:52.340Z,0.00
2023-02-01T05:28:52.432Z,0.00
2023-02-01T05:29:52.501Z,0.00
2023-02-01T05:30:52.641Z,0.00
2023-02-01T05:31:52.965Z,0.00
2023-02-01T05:32:52.855Z,0.00
2023-02-01T05:33:53.034Z,0.00
2023-02-01T05:34:53.108Z,0.00
2023-02-01T05:35:53.188Z,0.00
2023-02-01T05:36:53.275Z,0.00
2023-02-01T05:37:53.376Z,0.00
2023-02-01T05:38:53.448Z,0.00
2023-02-01T05:39:53.547Z,0.00
2023-02-01T05:40:53.625Z,0.00
2023-02-01T05:41:53.721Z,0.00
2023-02-01T05:42:53.802Z,0.00
2023-02-01T05:43:53.910Z,0.00
2023-02-01T05:44:53.998Z,0.00
2023-02-01T05:45:54.161Z,0.00
2023-02-01T05:46:54.261Z,0.00
2023-02-01T05:47:54.346Z,0.00
2023-02-01T05:48:54.435Z,0.00
2023-02-01T05:49:54.544Z,0.00
2023-02-01T05:50:54.646Z,0.00
2023-02-01T05:51:54.784Z,0.00
2023-02-01T05:52:54.879Z,0.00
2023-02-01T05:53:54.982Z,0.00
2023-02-01T05:54:55.131Z,0.00
2023-02-01T05:55:55.237Z,0.00
2023-02-01T05:56:55.343Z,0.00
2023-02-01T05:57:55.469Z,0.00
2023-02-01T05:58:55.537Z,0.00
2023-02-01T05:59:55.648Z,0.00
2023-02-01T06:00:55.753Z,0.00
2023-02-01T06:01:55.873Z,0.00
2023-02-01T06:02:56.060Z,0.00
2023-02-01T06:03:56.126Z,0.00
2023-02-01T06:04:56.120Z,0.00
2023-02-01T06:05:56.191Z,0.00
2023-02-01T06:06:56.305Z,0.00
2023-02-01T06:07:56.415Z,0.00
2023-02-01T06:08:56.509Z,0.00
2023-02-01T06:09:56.617Z,0.00
2023-02-01T06:10:56.716Z,0.00
2023-02-01T06:11:56.825Z,0.00
2023-02-01T06:12:56.913Z,0.00
2023-02-01T06:13:57.048Z,0.00
2023-02-01T06:14:57.207Z,0.00
2023-02-01T06:15:57.399Z,0.00
2023-02-01T06:16:57.559Z,0.00
2023-02-01T06:17:57.722Z,0.00
2023-02-01T06:18:57.770Z,0.00
2023-02-01T06:19:57.931Z,0.00
2023-02-01T06:20:58.066Z,0.00
2023-02-01T06:21:58.363Z,0.00
2023-02-01T06:22:58.292Z,4.00
2023-02-01T06:23:58.475Z,0.00
2023-02-01T06:24:58.516Z,4.00
2023-02-01T06:25:58.685Z,4.00
2023-02-01T06:26:58.861Z,0.00
2023-02-01T06:27:59.032Z,4.00
2023-02-01T06:28:59.204Z,4.00
2023-02-01T06:29:59.378Z,4.00
2023-02-01T06:30:59.636Z,8.00
2023-02-01T06:31:59.804Z,8.00
2023-02-01T06:32:59.742Z,8.00
2023-02-01T06:33:59.937Z,12.00
2023-02-01T06:34:59.987Z,12.00
2023-02-01T06:36:00.159Z,12.00
2023-02-01T06:37:00.331Z,16.00
2023-02-01T06:38:00.473Z,24.00
2023-02-01T06:39:00.605Z,28.00
2023-02-01T06:40:00.755Z,24.00
2023-02-01T06:41:00.884Z,28.00
2023-02-01T06:42:01.086Z,32.00
2023-02-01T06:43:01.099Z,36.00
2023-02-01T06:44:01.239Z,36.00
2023-02-01T06:45:01.371Z,32.00
2023-02-01T06:46:01.546Z,28.00
2023-02-01T06:47:01.697Z,36.00
2023-02-01T06:48:01.793Z,36.00
2023-02-01T06:49:01.943Z,36.00
2023-02-01T06:50:02.077Z,36.00
2023-02-01T06:51:02.220Z,32.00
2023-02-01T06:52:02.340Z,40.00
2023-02-01T06:53:02.458Z,76.00
2023-02-01T06:54:02.591Z,100.00
2023-02-01T06:55:02.728Z,104.00
2023-02-01T06:56:02.868Z,108.00
2023-02-01T06:57:03.011Z,148.00
2023-02-01T06:58:03.143Z,200.00
2023-02-01T06:59:03.256Z,216.00
2023-02-01T07:00:03.395Z,220.00
2023-02-01T07:01:03.567Z,212.00
2023-02-01T07:02:03.710Z,216.00
2023-02-01T07:03:03.811Z,180.00
2023-02-01T07:04:03.949Z,176.00
2023-02-01T07:05:04.092Z,188.00
2023-02-01T07:06:04.209Z,200.00
2023-02-01T07:07:04.327Z,192.00
2023-02-01T07:08:04.626Z,180.00
2023-02-01T07:09:04.613Z,188.00
2023-02-01T07:10:04.733Z,192.00
2023-02-01T07:11:04.862Z,200.00
2023-02-01T07:12:04.983Z,180.00
2023-02-01T07:13:05.080Z,176.00
2023-02-01T07:14:05.185Z,176.00
2023-02-01T07:15:05.284Z,192.00
2023-02-01T07:16:05.486Z,252.00
2023-02-01T07:17:05.595Z,268.00
2023-02-01T07:18:05.704Z,292.00
2023-02-01T07:19:05.821Z,364.00
2023-02-01T07:20:05.940Z,424.00
2023-02-01T07:21:06.031Z,444.00
2023-02-01T07:22:06.146Z,452.00
2023-02-01T07:23:06.248Z,400.00
2023-02-01T07:24:06.357Z,440.00
2023-02-01T07:25:06.720Z,564.00
2023-02-01T07:26:06.603Z,624.00
2023-02-01T07:27:06.723Z,764.00
2023-02-01T07:28:06.796Z,824.00
2023-02-01T07:29:06.896Z,852.00
2023-02-01T07:30:07.018Z,1180.00
2023-02-01T07:31:07.183Z,1296.00
2023-02-01T07:32:07.294Z,1348.00
2023-02-01T07:33:07.399Z,1564.00
2023-02-01T07:34:07.536Z,1744.00
2023-02-01T07:35:07.650Z,2020.00
2023-02-01T07:36:07.804Z,1680.00
2023-02-01T07:37:07.894Z,1584.00
2023-02-01T07:38:07.993Z,1296.00
2023-02-01T07:39:08.105Z,956.00
2023-02-01T07:40:08.213Z,616.00
2023-02-01T07:41:08.311Z,604.00
2023-02-01T07:42:08.406Z,512.00
2023-02-01T07:43:08.504Z,476.00
2023-02-01T07:44:08.628Z,452.00
2023-02-01T07:45:20.819Z,404.00
2023-02-01T07:46:09.927Z,388.00
2023-02-01T07:47:09.059Z,380.00
2023-02-01T07:48:09.184Z,380.00
2023-02-01T07:49:09.305Z,368.00
2023-02-01T07:50:09.439Z,432.00
2023-02-01T07:51:09.541Z,452.00
2023-02-01T07:52:09.653Z,460.00
2023-02-01T07:53:09.759Z,468.00
2023-02-01T07:54:09.897Z,508.00
2023-02-01T07:55:10.018Z,488.00
2023-02-01T07:56:10.156Z,428.00
2023-02-01T07:57:10.279Z,372.00
2023-02-01T07:58:10.426Z,340.00
2023-02-01T07:59:10.547Z,328.00
2023-02-01T08:00:10.697Z,340.00
2023-02-01T08:01:10.919Z,380.00
2023-02-01T08:02:11.023Z,412.00
2023-02-01T08:03:11.070Z,396.00
2023-02-01T08:04:11.232Z,384.00
2023-02-01T08:05:11.383Z,360.00
2023-02-01T08:06:11.499Z,396.00
2023-02-01T08:07:11.633Z,428.00
2023-02-01T08:08:11.784Z,472.00
2023-02-01T08:09:11.991Z,496.00
2023-02-01T08:10:12.025Z,524.00
2023-02-01T08:11:12.152Z,448.00
2023-02-01T08:12:12.310Z,484.00
2023-02-01T08:13:12.444Z,488.00
2023-02-01T08:14:12.606Z,544.00
2023-02-01T08:15:19.732Z,632.00
2023-02-01T08:16:12.854Z,560.00
2023-02-01T08:17:13.017Z,644.00
2023-02-01T08:18:13.151Z,616.00
2023-02-01T08:19:13.303Z,600.00
2023-02-01T08:20:13.477Z,604.00
2023-02-01T08:21:13.603Z,556.00
2023-02-01T08:22:13.754Z,616.00
2023-02-01T08:23:13.897Z,612.00
2023-02-01T08:24:14.048Z,664.00
2023-02-01T08:25:14.193Z,560.00
2023-02-01T08:26:14.501Z,824.00
2023-02-01T08:27:14.456Z,784.00
2023-02-01T08:28:14.592Z,720.00
2023-02-01T08:29:14.779Z,664.00
2023-02-01T08:30:14.922Z,772.00
2023-02-01T08:31:15.099Z,800.00
2023-02-01T08:32:15.226Z,884.00
2023-02-01T08:33:15.375Z,816.00
2023-02-01T08:34:15.550Z,784.00
2023-02-01T08:35:15.698Z,796.00
2023-02-01T08:36:15.840Z,744.00
2023-02-01T08:37:15.981Z,812.00
2023-02-01T08:38:16.167Z,844.00
2023-02-01T08:39:16.356Z,788.00
2023-02-01T08:40:16.374Z,844.00
2023-02-01T08:41:16.516Z,716.00
2023-02-01T08:42:16.658Z,664.00
2023-02-01T08:43:16.810Z,796.00
2023-02-01T08:44:16.956Z,836.00
2023-02-01T08:45:17.101Z,896.00
2023-02-01T08:46:17.285Z,804.00
2023-02-01T08:47:17.450Z,880.00
2023-02-01T08:48:17.472Z,740.00
2023-02-01T08:49:17.626Z,832.00
2023-02-01T08:50:17.786Z,888.00
2023-02-01T08:51:17.947Z,916.00
2023-02-01T08:52:18.055Z,844.00
2023-02-01T08:53:18.195Z,800.00
2023-02-01T08:54:18.345Z,808.00
2023-02-01T08:55:18.494Z,760.00
2023-02-01T08:56:18.621Z,800.00
2023-02-01T08:57:18.775Z,748.00
2023-02-01T08:58:18.936Z,832.00
2023-02-01T08:59:19.081Z,816.00
2023-02-01T09:00:19.213Z,628.00
2023-02-01T09:01:19.423Z,880.00
2023-02-01T09:02:19.422Z,744.00
2023-02-01T09:03:19.620Z,816.00
2023-02-01T09:04:19.799Z,728.00
2023-02-01T09:05:19.823Z,756.00
2023-02-01T09:06:19.964Z,884.00
2023-02-01T09:07:20.094Z,992.00
2023-02-01T09:08:20.229Z,984.00
2023-02-01T09:09:20.405Z,1052.00
2023-02-01T09:10:29.972Z,1168.00
2023-02-01T09:11:21.770Z,1524.00
2023-02-01T09:12:20.903Z,1532.00
2023-02-01T09:13:21.054Z,1428.00
2023-02-01T09:14:21.209Z,1588.00
2023-02-01T09:15:21.370Z,1924.00
2023-02-01T09:16:21.607Z,2484.00
2023-02-01T09:17:21.706Z,2784.00
2023-02-01T09:18:21.853Z,3036.00
2023-02-01T09:19:26.258Z,3436.00
2023-02-01T09:20:22.899Z,2484.00
2023-02-01T09:21:22.233Z,2620.00
2023-02-01T09:22:22.356Z,1896.00
2023-02-01T09:23:22.498Z,1572.00
2023-02-01T09:24:22.659Z,1428.00
2023-02-01T09:25:22.838Z,1320.00
2023-02-01T09:26:31.159Z,1400.00
2023-02-01T09:27:24.029Z,1584.00
2023-02-01T09:28:23.141Z,1472.00
2023-02-01T09:29:23.303Z,1516.00
2023-02-01T09:30:23.746Z,1948.00
2023-02-01T09:31:23.618Z,1928.00
2023-02-01T09:32:23.876Z,2096.00
2023-02-01T09:33:23.922Z,2004.00
2023-02-01T09:34:24.039Z,2512.00
2023-02-01T09:35:24.165Z,3240.00
2023-02-01T09:36:24.280Z,3036.00
2023-02-01T09:37:24.380Z,2644.00
2023-02-01T09:38:24.485Z,1448.00
2023-02-01T09:39:24.593Z,1616.00
2023-02-01T09:40:25.191Z,1716.00
2023-02-01T09:41:24.963Z,1444.00
2023-02-01T09:42:25.027Z,1908.00
2023-02-01T09:43:25.140Z,1728.00
2023-02-01T09:44:27.696Z,1952.00
2023-02-01T09:45:25.340Z,3232.00
2023-02-01T09:46:25.529Z,3132.00
2023-02-01T09:47:25.569Z,3352.00
2023-02-01T09:48:25.678Z,2908.00
2023-02-01T09:49:25.884Z,3036.00
2023-02-01T09:50:26.252Z,2676.00
2023-02-01T09:51:26.044Z,2792.00
2023-02-01T09:52:26.176Z,2760.00
2023-02-01T09:53:26.314Z,2836.00
2023-02-01T09:54:26.456Z,2700.00
2023-02-01T09:55:26.564Z,2632.00
2023-02-01T09:56:26.654Z,2460.00
2023-02-01T09:57:26.768Z,2456.00
2023-02-01T09:58:26.873Z,2328.00
2023-02-01T09:59:27.019Z,2020.00
2023-02-01T10:00:27.393Z,1672.00
2023-02-01T10:01:27.383Z,2168.00
2023-02-01T10:02:27.433Z,2436.00
2023-02-01T10:03:27.624Z,3020.00
2023-02-01T10:04:27.791Z,2928.00
2023-02-01T10:05:27.786Z,2364.00
2023-02-01T10:06:30.222Z,2068.00
2023-02-01T10:07:28.029Z,1996.00
2023-02-01T10:08:28.116Z,2036.00
2023-02-01T10:09:28.235Z,2084.00
2023-02-01T10:10:28.336Z,2260.00
2023-02-01T10:11:28.528Z,1968.00
2023-02-01T10:12:30.165Z,2252.00
2023-02-01T10:13:28.628Z,2232.00
2023-02-01T10:14:28.740Z,2192.00
2023-02-01T10:15:28.873Z,2080.00
2023-02-01T10:16:29.045Z,3648.00
2023-02-01T10:17:29.164Z,4524.00
2023-02-01T10:18:29.333Z,4956.00
2023-02-01T10:19:29.567Z,4164.00
2023-02-01T10:20:29.634Z,4060.00
2023-02-01T10:21:29.835Z,4212.00
2023-02-01T10:22:49.596Z,5872.00
2023-02-01T10:23:34.263Z,5996.00
2023-02-01T10:24:30.407Z,5852.00
2023-02-01T10:25:30.351Z,5236.00
2023-02-01T10:26:30.370Z,4908.00
2023-02-01T10:27:30.493Z,4220.00
2023-02-01T10:28:30.585Z,4320.00
2023-02-01T10:29:30.707Z,5844.00
2023-02-01T10:30:34.546Z,5168.00
2023-02-01T10:31:31.051Z,4380.00
2023-02-01T10:32:31.064Z,10604.00
2023-02-01T10:33:31.179Z,8536.00
2023-02-01T10:34:31.278Z,11148.00
2023-02-01T10:35:31.506Z,12884.00
2023-02-01T10:36:31.780Z,7836.00
2023-02-01T10:37:31.623Z,2148.00
2023-02-01T10:38:31.767Z,1588.00
2023-02-01T10:39:31.870Z,2064.00
2023-02-01T10:40:31.924Z,2480.00
2023-02-01T10:41:32.115Z,1648.00
2023-02-01T10:42:32.181Z,1620.00
2023-02-01T10:43:32.274Z,2248.00
2023-02-01T10:44:32.365Z,2256.00
2023-02-01T10:45:32.473Z,1796.00
2023-02-01T10:46:32.576Z,1584.00
2023-02-01T10:47:32.628Z,1476.00
2023-02-01T10:48:32.716Z,2148.00
2023-02-01T10:49:32.825Z,2652.00
2023-02-01T10:50:32.929Z,2088.00
2023-02-01T10:51:33.026Z,2848.00
2023-02-01T10:52:33.135Z,2804.00
2023-02-01T10:53:33.276Z,3460.00
2023-02-01T10:54:33.417Z,3340.00
2023-02-01T10:55:33.514Z,2452.00
2023-02-01T10:56:33.620Z,2224.00
2023-02-01T10:57:33.731Z,1980.00
2023-02-01T10:58:33.833Z,2028.00
2023-02-01T10:59:33.920Z,1944.00
2023-02-01T11:00:34.031Z,1888.00
2023-02-01T11:01:34.171Z,1548.00
2023-02-01T11:02:34.326Z,2160.00
2023-02-01T11:03:35.385Z,3220.00
2023-02-01T11:04:34.623Z,3700.00
2023-02-01T11:05:34.746Z,4096.00
2023-02-01T11:06:34.852Z,4580.00
2023-02-01T11:07:34.956Z,6216.00
2023-02-01T11:08:35.080Z,6144.00
2023-02-01T11:09:35.195Z,4544.00
2023-02-01T11:10:35.282Z,4572.00
2023-02-01T11:11:35.365Z,6440.00
2023-02-01T11:12:35.437Z,7988.00
2023-02-01T11:13:35.515Z,5540.00
2023-02-01T11:14:35.634Z,4888.00
2023-02-01T11:15:35.730Z,4712.00
2023-02-01T11:16:35.854Z,4424.00
2023-02-01T11:17:35.954Z,5128.00
2023-02-01T11:18:36.011Z,6328.00
2023-02-01T11:19:36.118Z,7236.00
2023-02-01T11:20:36.231Z,8892.00
2023-02-01T11:21:37.489Z,8528.00
2023-02-01T11:22:36.426Z,7220.00
2023-02-01T11:23:36.491Z,8436.00
2023-02-01T11:24:36.594Z,8344.00
2023-02-01T11:25:36.652Z,9304.00
2023-02-01T11:26:36.732Z,9812.00
2023-02-01T11:27:43.040Z,8588.00
2023-02-01T11:28:37.935Z,9096.00
2023-02-01T11:29:37.110Z,9988.00
2023-02-01T11:30:37.168Z,10848.00
2023-02-01T11:31:37.536Z,13292.00
2023-02-01T11:32:37.487Z,12304.00
2023-02-01T11:33:37.543Z,14280.00
2023-02-01T11:34:37.698Z,11952.00
2023-02-01T11:35:37.855Z,8260.00
2023-02-01T11:36:37.980Z,11404.00
2023-02-01T11:37:38.128Z,9808.00
2023-02-01T11:38:38.235Z,10616.00
2023-02-01T11:39:38.395Z,21952.00
2023-02-01T11:40:38.423Z,22368.00
2023-02-01T11:41:38.546Z,12740.00
2023-02-01T11:42:38.680Z,8652.00
2023-02-01T11:43:38.805Z,5864.00
2023-02-01T11:44:38.950Z,4416.00
2023-02-01T11:45:39.068Z,3592.00
2023-02-01T11:46:39.189Z,5128.00
2023-02-01T11:47:39.297Z,7032.00
2023-02-01T11:48:39.435Z,9424.00
2023-02-01T11:49:39.601Z,7812.00
2023-02-01T11:50:39.609Z,7296.00
2023-02-01T11:51:39.753Z,7572.00
2023-02-01T11:52:39.896Z,7016.00
2023-02-01T11:53:39.997Z,7540.00
2023-02-01T11:54:41.096Z,7456.00
2023-02-01T11:55:40.272Z,7252.00
2023-02-01T11:56:40.289Z,6652.00
2023-02-01T11:57:40.413Z,6228.00
2023-02-01T11:58:40.547Z,4932.00
2023-02-01T11:59:43.101Z,5916.00
2023-02-01T12:00:41.765Z,7048.00
2023-02-01T12:01:40.949Z,8344.00
2023-02-01T12:02:40.977Z,12492.00
2023-02-01T12:03:41.087Z,10556.00
2023-02-01T12:04:41.217Z,7880.00
2023-02-01T12:05:41.374Z,13276.00
2023-02-01T12:06:41.381Z,17856.00
2023-02-01T12:07:41.539Z,15808.00
2023-02-01T12:08:41.551Z,9868.00
2023-02-01T12:09:41.705Z,8964.00
2023-02-01T12:10:41.697Z,12284.00
2023-02-01T12:11:41.809Z,10292.00
2023-02-01T12:12:41.925Z,10420.00
2023-02-01T12:13:42.029Z,8432.00
2023-02-01T12:14:42.160Z,7236.00
2023-02-01T12:15:42.257Z,7012.00
2023-02-01T12:16:42.395Z,6264.00
2023-02-01T12:17:42.470Z,6408.00
2023-02-01T12:18:42.590Z,5056.00
2023-02-01T12:19:42.697Z,4304.00
2023-02-01T12:20:42.800Z,5608.00
2023-02-01T12:21:42.897Z,4740.00
2023-02-01T12:22:43.020Z,4724.00
2023-02-01T12:23:43.132Z,4328.00
2023-02-01T12:24:43.266Z,2824.00
2023-02-01T12:25:43.372Z,2444.00
2023-02-01T12:26:43.548Z,2940.00
2023-02-01T12:27:43.525Z,3724.00
2023-02-01T12:28:43.637Z,5568.00
2023-02-01T12:29:43.774Z,6208.00
2023-02-01T12:30:43.930Z,3080.00
2023-02-01T12:31:43.984Z,1964.00
2023-02-01T12:32:44.025Z,1992.00
2023-02-01T12:33:44.140Z,2780.00
2023-02-01T12:34:44.265Z,3884.00
2023-02-01T12:35:44.370Z,4268.00
2023-02-01T12:36:44.486Z,4044.00
2023-02-01T12:37:44.677Z,3612.00
2023-02-01T12:38:44.708Z,3112.00
2023-02-01T12:39:44.817Z,3940.00
2023-02-01T12:40:44.942Z,3780.00
2023-02-01T12:41:45.067Z,3948.00
2023-02-01T12:42:45.192Z,4152.00
2023-02-01T12:43:45.308Z,4644.00
2023-02-01T12:44:45.448Z,5032.00
2023-02-01T12:45:45.584Z,5556.00
2023-02-01T12:46:45.699Z,4512.00